sensor_id;sensor_type;location;lat;lon;timestamp;P1;durP1;ratioP1;P2;durP2;ratioP2
67049;SDS011;53955;52.442;13.284;2023-09-18T00:00:31;8.85;;;6.00;;
67049;SDS011;53955;52.442;13.284;2023-09-18T00:03:00;8.55;;;6.05;;
67049;SDS011;53955;52.442;13.284;2023-09-18T00:05:27;6.80;;;5.50;;
67049;SDS011;53955;52.442;13.284;2023-09-18T00:07:54;7.15;;;5.50;;
67049;SDS011;53955;52.442;13.284;2023-09-18T00:10:21;7.60;;;5.63;;
67049;SDS011;53955;52.442;13.284;2023-09-18T00:12:49;6.95;;;5.30;;
67049;SDS011;53955;52.442;13.284;2023-09-18T00:15:15;7.22;;;5.65;;
67049;SDS011;53955;52.442;13.284;2023-09-18T00:17:42;7.38;;;5.97;;
67049;SDS011;53955;52.442;13.284;2023-09-18T00:20:09;6.85;;;5.32;;
67049;SDS011;53955;52.442;13.284;2023-09-18T00:22:36;6.93;;;5.60;;
67049;SDS011;53955;52.442;13.284;2023-09-18T00:25:03;7.18;;;5.07;;
67049;SDS011;53955;52.442;13.284;2023-09-18T00:27:30;6.82;;;5.43;;
67049;SDS011;53955;52.442;13.284;2023-09-18T00:29:59;6.68;;;5.35;;
67049;SDS011;53955;52.442;13.284;2023-09-18T00:34:53;7.63;;;5.25;;
67049;SDS011;53955;52.442;13.284;2023-09-18T00:37:20;6.68;;;5.55;;
67049;SDS011;53955;52.442;13.284;2023-09-18T00:39:46;6.15;;;4.90;;
67049;SDS011;53955;52.442;13.284;2023-09-18T00:42:15;6.35;;;5.28;;
67049;SDS011;53955;52.442;13.284;2023-09-18T00:44:43;6.90;;;5.18;;
67049;SDS011;53955;52.442;13.284;2023-09-18T00:47:10;7.80;;;5.68;;
67049;SDS011;53955;52.442;13.284;2023-09-18T00:49:40;7.20;;;5.15;;
67049;SDS011;53955;52.442;13.284;2023-09-18T00:52:11;6.35;;;5.38;;
67049;SDS011;53955;52.442;13.284;2023-09-18T00:54:38;6.22;;;5.03;;
67049;SDS011;53955;52.442;13.284;2023-09-18T00:57:06;6.95;;;5.43;;
67049;SDS011;53955;52.442;13.284;2023-09-18T00:59:35;8.18;;;5.20;;
67049;SDS011;53955;52.442;13.284;2023-09-18T01:02:02;6.78;;;5.40;;
67049;SDS011;53955;52.442;13.284;2023-09-18T01:04:30;6.75;;;5.05;;
67049;SDS011;53955;52.442;13.284;2023-09-18T01:06:59;7.13;;;5.18;;
67049;SDS011;53955;52.442;13.284;2023-09-18T01:09:28;8.10;;;5.15;;
67049;SDS011;53955;52.442;13.284;2023-09-18T01:12:00;6.60;;;5.53;;
67049;SDS011;53955;52.442;13.284;2023-09-18T01:14:33;8.60;;;5.47;;
67049;SDS011;53955;52.442;13.284;2023-09-18T01:17:03;6.93;;;4.78;;
67049;SDS011;53955;52.442;13.284;2023-09-18T01:19:38;5.85;;;4.80;;
67049;SDS011;53955;52.442;13.284;2023-09-18T01:22:05;6.97;;;4.97;;
67049;SDS011;53955;52.442;13.284;2023-09-18T01:24:34;7.22;;;6.03;;
67049;SDS011;53955;52.442;13.284;2023-09-18T01:27:02;6.15;;;5.03;;
67049;SDS011;53955;52.442;13.284;2023-09-18T01:29:29;6.32;;;4.90;;
67049;SDS011;53955;52.442;13.284;2023-09-18T01:31:56;8.25;;;5.03;;
67049;SDS011;53955;52.442;13.284;2023-09-18T01:34:24;6.40;;;5.22;;
67049;SDS011;53955;52.442;13.284;2023-09-18T01:36:56;7.28;;;5.38;;
67049;SDS011;53955;52.442;13.284;2023-09-18T01:39:23;7.68;;;5.40;;
67049;SDS011;53955;52.442;13.284;2023-09-18T01:41:53;6.93;;;5.68;;
67049;SDS011;53955;52.442;13.284;2023-09-18T01:44:20;7.03;;;5.43;;
67049;SDS011;53955;52.442;13.284;2023-09-18T01:46:46;7.75;;;5.38;;
67049;SDS011;53955;52.442;13.284;2023-09-18T01:49:19;8.90;;;5.25;;
67049;SDS011;53955;52.442;13.284;2023-09-18T01:51:53;7.18;;;5.60;;
67049;SDS011;53955;52.442;13.284;2023-09-18T01:54:19;7.43;;;5.25;;
67049;SDS011;53955;52.442;13.284;2023-09-18T01:56:46;6.82;;;5.40;;
67049;SDS011;53955;52.442;13.284;2023-09-18T02:04:07;6.65;;;5.53;;
67049;SDS011;53955;52.442;13.284;2023-09-18T02:06:34;7.20;;;5.60;;
67049;SDS011;53955;52.442;13.284;2023-09-18T02:09:01;9.80;;;5.60;;
67049;SDS011;53955;52.442;13.284;2023-09-18T02:11:28;7.82;;;5.78;;
67049;SDS011;53955;52.442;13.284;2023-09-18T02:13:55;7.10;;;5.40;;
67049;SDS011;53955;52.442;13.284;2023-09-18T02:16:23;6.57;;;5.00;;
67049;SDS011;53955;52.442;13.284;2023-09-18T02:18:53;7.13;;;5.50;;
67049;SDS011;53955;52.442;13.284;2023-09-18T02:21:21;8.20;;;4.50;;
67049;SDS011;53955;52.442;13.284;2023-09-18T02:23:48;7.38;;;5.20;;
67049;SDS011;53955;52.442;13.284;2023-09-18T02:26:16;8.77;;;4.88;;
67049;SDS011;53955;52.442;13.284;2023-09-18T02:28:42;6.18;;;4.90;;
67049;SDS011;53955;52.442;13.284;2023-09-18T02:31:09;8.18;;;5.47;;
67049;SDS011;53955;52.442;13.284;2023-09-18T02:33:37;7.63;;;5.88;;
67049;SDS011;53955;52.442;13.284;2023-09-18T02:36:04;7.28;;;5.68;;
67049;SDS011;53955;52.442;13.284;2023-09-18T02:38:31;7.10;;;5.20;;
67049;SDS011;53955;52.442;13.284;2023-09-18T02:40:58;6.18;;;4.85;;
67049;SDS011;53955;52.442;13.284;2023-09-18T02:43:25;7.70;;;6.18;;
67049;SDS011;53955;52.442;13.284;2023-09-18T02:45:52;6.90;;;5.32;;
67049;SDS011;53955;52.442;13.284;2023-09-18T02:48:19;7.25;;;5.60;;
67049;SDS011;53955;52.442;13.284;2023-09-18T02:50:47;7.10;;;5.57;;
67049;SDS011;53955;52.442;13.284;2023-09-18T02:53:16;6.45;;;4.90;;
67049;SDS011;53955;52.442;13.284;2023-09-18T02:55:44;6.53;;;5.10;;
67049;SDS011;53955;52.442;13.284;2023-09-18T02:58:11;7.45;;;5.25;;
67049;SDS011;53955;52.442;13.284;2023-09-18T03:00:40;7.40;;;5.47;;
67049;SDS011;53955;52.442;13.284;2023-09-18T03:03:08;6.88;;;4.93;;
67049;SDS011;53955;52.442;13.284;2023-09-18T03:05:34;7.53;;;5.15;;
67049;SDS011;53955;52.442;13.284;2023-09-18T03:08:03;6.55;;;5.20;;
67049;SDS011;53955;52.442;13.284;2023-09-18T03:10:32;8.00;;;4.90;;
67049;SDS011;53955;52.442;13.284;2023-09-18T03:12:58;5.15;;;4.28;;
67049;SDS011;53955;52.442;13.284;2023-09-18T03:15:25;6.68;;;5.25;;
67049;SDS011;53955;52.442;13.284;2023-09-18T03:17:52;7.00;;;4.88;;
67049;SDS011;53955;52.442;13.284;2023-09-18T03:20:21;6.90;;;5.63;;
67049;SDS011;53955;52.442;13.284;2023-09-18T03:22:48;9.30;;;5.30;;
67049;SDS011;53955;52.442;13.284;2023-09-18T03:25:16;6.43;;;4.97;;
67049;SDS011;53955;52.442;13.284;2023-09-18T03:27:42;5.78;;;4.90;;
67049;SDS011;53955;52.442;13.284;2023-09-18T03:30:09;5.88;;;4.80;;
67049;SDS011;53955;52.442;13.284;2023-09-18T03:32:37;7.18;;;4.60;;
67049;SDS011;53955;52.442;13.284;2023-09-18T03:35:04;6.57;;;5.05;;
67049;SDS011;53955;52.442;13.284;2023-09-18T03:37:32;9.07;;;5.35;;
67049;SDS011;53955;52.442;13.284;2023-09-18T03:39:58;7.15;;;4.85;;
67049;SDS011;53955;52.442;13.284;2023-09-18T03:42:26;8.80;;;5.30;;
67049;SDS011;53955;52.442;13.284;2023-09-18T03:44:53;8.25;;;5.75;;
67049;SDS011;53955;52.442;13.284;2023-09-18T03:47:19;6.65;;;5.32;;
67049;SDS011;53955;52.442;13.284;2023-09-18T03:49:46;6.45;;;5.22;;
67049;SDS011;53955;52.442;13.284;2023-09-18T03:52:13;6.65;;;5.13;;
67049;SDS011;53955;52.442;13.284;2023-09-18T03:54:39;6.25;;;4.78;;
67049;SDS011;53955;52.442;13.284;2023-09-18T03:57:06;5.30;;;4.50;;
67049;SDS011;53955;52.442;13.284;2023-09-18T03:59:34;16.80;;;5.93;;
67049;SDS011;53955;52.442;13.284;2023-09-18T04:02:00;8.13;;;5.35;;
67049;SDS011;53955;52.442;13.284;2023-09-18T04:04:27;6.75;;;5.13;;
67049;SDS011;53955;52.442;13.284;2023-09-18T04:06:54;7.05;;;5.30;;
67049;SDS011;53955;52.442;13.284;2023-09-18T04:09:22;6.45;;;5.13;;
67049;SDS011;53955;52.442;13.284;2023-09-18T04:11:48;6.28;;;4.75;;
67049;SDS011;53955;52.442;13.284;2023-09-18T04:14:15;7.57;;;5.10;;
67049;SDS011;53955;52.442;13.284;2023-09-18T04:16:42;8.75;;;5.22;;
67049;SDS011;53955;52.442;13.284;2023-09-18T04:28:56;8.18;;;5.60;;
67049;SDS011;53955;52.442;13.284;2023-09-18T04:31:23;7.55;;;5.38;;
67049;SDS011;53955;52.442;13.284;2023-09-18T04:33:51;6.95;;;5.10;;
67049;SDS011;53955;52.442;13.284;2023-09-18T04:36:17;6.30;;;4.95;;
67049;SDS011;53955;52.442;13.284;2023-09-18T04:38:44;9.15;;;5.55;;
67049;SDS011;53955;52.442;13.284;2023-09-18T04:41:11;6.20;;;5.00;;
67049;SDS011;53955;52.442;13.284;2023-09-18T04:43:37;7.38;;;5.68;;
67049;SDS011;53955;52.442;13.284;2023-09-18T04:48:30;7.10;;;5.75;;
67049;SDS011;53955;52.442;13.284;2023-09-18T04:58:20;6.95;;;5.07;;
67049;SDS011;53955;52.442;13.284;2023-09-18T05:00:47;8.38;;;5.35;;
67049;SDS011;53955;52.442;13.284;2023-09-18T05:03:19;7.38;;;5.50;;
67049;SDS011;53955;52.442;13.284;2023-09-18T05:05:45;6.85;;;5.55;;
67049;SDS011;53955;52.442;13.284;2023-09-18T05:08:14;6.97;;;5.15;;
67049;SDS011;53955;52.442;13.284;2023-09-18T05:10:41;8.20;;;5.40;;
67049;SDS011;53955;52.442;13.284;2023-09-18T05:15:35;7.40;;;5.60;;
67049;SDS011;53955;52.442;13.284;2023-09-18T05:18:02;9.60;;;5.90;;
67049;SDS011;53955;52.442;13.284;2023-09-18T05:25:25;7.32;;;5.57;;
67049;SDS011;53955;52.442;13.284;2023-09-18T05:30:23;7.07;;;5.60;;
67049;SDS011;53955;52.442;13.284;2023-09-18T05:32:53;8.07;;;5.50;;
67049;SDS011;53955;52.442;13.284;2023-09-18T05:35:20;6.07;;;5.13;;
67049;SDS011;53955;52.442;13.284;2023-09-18T05:37:48;7.03;;;5.40;;
67049;SDS011;53955;52.442;13.284;2023-09-18T05:59:54;7.55;;;4.10;;
67049;SDS011;53955;52.442;13.284;2023-09-18T06:02:21;6.18;;;4.50;;
67049;SDS011;53955;52.442;13.284;2023-09-18T06:04:48;6.38;;;4.47;;
67049;SDS011;53955;52.442;13.284;2023-09-18T06:07:14;6.47;;;4.40;;
67049;SDS011;53955;52.442;13.284;2023-09-18T06:09:41;5.90;;;4.00;;
67049;SDS011;53955;52.442;13.284;2023-09-18T06:12:08;5.63;;;4.47;;
67049;SDS011;53955;52.442;13.284;2023-09-18T06:14:35;6.57;;;4.10;;
67049;SDS011;53955;52.442;13.284;2023-09-18T06:17:04;7.75;;;4.85;;
67049;SDS011;53955;52.442;13.284;2023-09-18T06:19:31;5.43;;;4.05;;
67049;SDS011;53955;52.442;13.284;2023-09-18T06:34:12;4.68;;;3.60;;
67049;SDS011;53955;52.442;13.284;2023-09-18T06:46:27;7.75;;;3.50;;
67049;SDS011;53955;52.442;13.284;2023-09-18T06:48:54;4.38;;;3.33;;
67049;SDS011;53955;52.442;13.284;2023-09-18T06:51:22;5.05;;;2.95;;
67049;SDS011;53955;52.442;13.284;2023-09-18T06:53:49;3.90;;;2.95;;
67049;SDS011;53955;52.442;13.284;2023-09-18T06:56:15;5.80;;;2.92;;
67049;SDS011;53955;52.442;13.284;2023-09-18T06:58:42;4.60;;;2.65;;
67049;SDS011;53955;52.442;13.284;2023-09-18T07:01:08;4.65;;;2.83;;
67049;SDS011;53955;52.442;13.284;2023-09-18T07:03:35;8.10;;;2.80;;
67049;SDS011;53955;52.442;13.284;2023-09-18T07:06:05;5.57;;;3.00;;
67049;SDS011;53955;52.442;13.284;2023-09-18T07:08:33;3.55;;;2.63;;
67049;SDS011;53955;52.442;13.284;2023-09-18T07:10:59;3.35;;;2.58;;
67049;SDS011;53955;52.442;13.284;2023-09-18T07:13:26;4.00;;;2.65;;
67049;SDS011;53955;52.442;13.284;2023-09-18T07:15:52;7.45;;;3.05;;
67049;SDS011;53955;52.442;13.284;2023-09-18T07:18:19;4.80;;;2.67;;
67049;SDS011;53955;52.442;13.284;2023-09-18T07:20:46;5.75;;;2.40;;
67049;SDS011;53955;52.442;13.284;2023-09-18T07:23:12;4.10;;;2.72;;
67049;SDS011;53955;52.442;13.284;2023-09-18T07:25:40;3.30;;;2.50;;
67049;SDS011;53955;52.442;13.284;2023-09-18T07:28:08;10.32;;;3.30;;
67049;SDS011;53955;52.442;13.284;2023-09-18T07:30:40;4.60;;;2.95;;
67049;SDS011;53955;52.442;13.284;2023-09-18T07:33:08;4.43;;;2.60;;
67049;SDS011;53955;52.442;13.284;2023-09-18T07:35:35;4.50;;;2.47;;
67049;SDS011;53955;52.442;13.284;2023-09-18T07:38:02;4.20;;;2.67;;
67049;SDS011;53955;52.442;13.284;2023-09-18T07:40:29;4.43;;;2.80;;
67049;SDS011;53955;52.442;13.284;2023-09-18T07:42:57;4.53;;;2.90;;
67049;SDS011;53955;52.442;13.284;2023-09-18T07:45:24;4.25;;;2.95;;
67049;SDS011;53955;52.442;13.284;2023-09-18T07:47:50;5.35;;;3.28;;
67049;SDS011;53955;52.442;13.284;2023-09-18T07:50:17;4.05;;;3.15;;
67049;SDS011;53955;52.442;13.284;2023-09-18T07:52:43;4.43;;;3.00;;
67049;SDS011;53955;52.442;13.284;2023-09-18T07:55:10;4.60;;;3.40;;
67049;SDS011;53955;52.442;13.284;2023-09-18T07:57:37;4.65;;;3.42;;
67049;SDS011;53955;52.442;13.284;2023-09-18T08:00:06;5.82;;;3.53;;
67049;SDS011;53955;52.442;13.284;2023-09-18T08:02:37;5.13;;;3.65;;
67049;SDS011;53955;52.442;13.284;2023-09-18T08:05:04;5.57;;;3.58;;
67049;SDS011;53955;52.442;13.284;2023-09-18T08:07:32;4.55;;;3.08;;
67049;SDS011;53955;52.442;13.284;2023-09-18T08:10:00;4.43;;;3.30;;
67049;SDS011;53955;52.442;13.284;2023-09-18T08:12:27;6.68;;;3.53;;
67049;SDS011;53955;52.442;13.284;2023-09-18T08:14:53;7.18;;;3.20;;
67049;SDS011;53955;52.442;13.284;2023-09-18T08:17:23;4.78;;;3.67;;
67049;SDS011;53955;52.442;13.284;2023-09-18T08:19:50;6.13;;;3.72;;
67049;SDS011;53955;52.442;13.284;2023-09-18T08:22:18;5.05;;;3.25;;
67049;SDS011;53955;52.442;13.284;2023-09-18T08:24:46;4.80;;;3.30;;
67049;SDS011;53955;52.442;13.284;2023-09-18T08:27:13;6.75;;;3.30;;
67049;SDS011;53955;52.442;13.284;2023-09-18T08:29:41;4.45;;;3.30;;
67049;SDS011;53955;52.442;13.284;2023-09-18T08:32:08;4.95;;;3.97;;
67049;SDS011;53955;52.442;13.284;2023-09-18T08:34:36;5.75;;;4.00;;
67049;SDS011;53955;52.442;13.284;2023-09-18T08:37:02;5.38;;;3.55;;
67049;SDS011;53955;52.442;13.284;2023-09-18T08:39:29;4.63;;;3.10;;
67049;SDS011;53955;52.442;13.284;2023-09-18T08:41:58;4.65;;;3.40;;
67049;SDS011;53955;52.442;13.284;2023-09-18T08:44:28;5.20;;;3.38;;
67049;SDS011;53955;52.442;13.284;2023-09-18T08:46:55;4.50;;;3.45;;
67049;SDS011;53955;52.442;13.284;2023-09-18T08:49:22;4.00;;;3.28;;
67049;SDS011;53955;52.442;13.284;2023-09-18T08:56:46;5.18;;;3.28;;
67049;SDS011;53955;52.442;13.284;2023-09-18T08:59:13;5.03;;;3.47;;
67049;SDS011;53955;52.442;13.284;2023-09-18T09:01:40;5.68;;;3.47;;
67049;SDS011;53955;52.442;13.284;2023-09-18T09:04:07;6.25;;;3.40;;
67049;SDS011;53955;52.442;13.284;2023-09-18T09:06:34;5.50;;;3.60;;
67049;SDS011;53955;52.442;13.284;2023-09-18T09:09:03;4.22;;;3.25;;
67049;SDS011;53955;52.442;13.284;2023-09-18T09:11:29;3.83;;;2.97;;
67049;SDS011;53955;52.442;13.284;2023-09-18T09:14:08;5.43;;;3.58;;
67049;SDS011;53955;52.442;13.284;2023-09-18T09:16:36;4.88;;;3.63;;
67049;SDS011;53955;52.442;13.284;2023-09-18T09:19:05;4.47;;;3.30;;
67049;SDS011;53955;52.442;13.284;2023-09-18T09:21:38;4.40;;;3.42;;
67049;SDS011;53955;52.442;13.284;2023-09-18T09:24:07;5.15;;;3.30;;
67049;SDS011;53955;52.442;13.284;2023-09-18T09:26:33;4.70;;;2.95;;
67049;SDS011;53955;52.442;13.284;2023-09-18T09:29:09;5.43;;;3.28;;
67049;SDS011;53955;52.442;13.284;2023-09-18T09:36:36;6.57;;;3.60;;
67049;SDS011;53955;52.442;13.284;2023-09-18T09:56:45;6.80;;;3.33;;
67049;SDS011;53955;52.442;13.284;2023-09-18T10:04:15;5.50;;;3.47;;
67049;SDS011;53955;52.442;13.284;2023-09-18T10:06:43;5.13;;;3.22;;
67049;SDS011;53955;52.442;13.284;2023-09-18T10:11:42;4.38;;;3.08;;
67049;SDS011;53955;52.442;13.284;2023-09-18T10:14:12;7.50;;;3.22;;
67049;SDS011;53955;52.442;13.284;2023-09-18T10:21:49;4.57;;;3.40;;
67049;SDS011;53955;52.442;13.284;2023-09-18T10:24:25;4.55;;;3.38;;
67049;SDS011;53955;52.442;13.284;2023-09-18T10:26:55;5.45;;;3.30;;
67049;SDS011;53955;52.442;13.284;2023-09-18T10:29:23;4.55;;;3.30;;
67049;SDS011;53955;52.442;13.284;2023-09-18T10:31:51;4.28;;;3.00;;
67049;SDS011;53955;52.442;13.284;2023-09-18T10:34:20;8.77;;;3.40;;
67049;SDS011;53955;52.442;13.284;2023-09-18T10:36:49;4.10;;;3.10;;
67049;SDS011;53955;52.442;13.284;2023-09-18T10:39:17;4.28;;;3.67;;
67049;SDS011;53955;52.442;13.284;2023-09-18T10:41:46;4.67;;;3.43;;
67049;SDS011;53955;52.442;13.284;2023-09-18T10:44:13;4.60;;;3.30;;
67049;SDS011;53955;52.442;13.284;2023-09-18T10:46:41;4.72;;;3.30;;
67049;SDS011;53955;52.442;13.284;2023-09-18T10:49:08;4.70;;;3.35;;
67049;SDS011;53955;52.442;13.284;2023-09-18T10:51:36;5.65;;;3.70;;
67049;SDS011;53955;52.442;13.284;2023-09-18T10:54:07;7.90;;;3.85;;
67049;SDS011;53955;52.442;13.284;2023-09-18T10:56:33;4.35;;;3.30;;
67049;SDS011;53955;52.442;13.284;2023-09-18T10:59:01;5.28;;;3.78;;
67049;SDS011;53955;52.442;13.284;2023-09-18T11:03:57;4.47;;;3.50;;
67049;SDS011;53955;52.442;13.284;2023-09-18T11:06:26;4.43;;;3.35;;
67049;SDS011;53955;52.442;13.284;2023-09-18T11:11:28;4.15;;;3.35;;
67049;SDS011;53955;52.442;13.284;2023-09-18T11:13:58;4.55;;;3.53;;
67049;SDS011;53955;52.442;13.284;2023-09-18T11:16:35;5.97;;;3.65;;
67049;SDS011;53955;52.442;13.284;2023-09-18T11:24:04;5.57;;;3.97;;
67049;SDS011;53955;52.442;13.284;2023-09-18T11:26:36;5.40;;;4.25;;
67049;SDS011;53955;52.442;13.284;2023-09-18T11:29:06;5.78;;;3.88;;
67049;SDS011;53955;52.442;13.284;2023-09-18T11:31:47;4.78;;;3.92;;
67049;SDS011;53955;52.442;13.284;2023-09-18T11:34:17;5.38;;;3.20;;
67049;SDS011;53955;52.442;13.284;2023-09-18T11:36:46;5.40;;;3.92;;
67049;SDS011;53955;52.442;13.284;2023-09-18T11:39:17;7.40;;;3.58;;
67049;SDS011;53955;52.442;13.284;2023-09-18T11:42:06;5.13;;;3.53;;
67049;SDS011;53955;52.442;13.284;2023-09-18T11:44:34;5.72;;;3.72;;
67049;SDS011;53955;52.442;13.284;2023-09-18T11:47:06;6.13;;;4.13;;
67049;SDS011;53955;52.442;13.284;2023-09-18T11:49:34;5.85;;;4.10;;
67049;SDS011;53955;52.442;13.284;2023-09-18T11:52:01;6.47;;;3.05;;
67049;SDS011;53955;52.442;13.284;2023-09-18T11:54:30;4.18;;;3.10;;
67049;SDS011;53955;52.442;13.284;2023-09-18T11:57:02;4.55;;;3.40;;
67049;SDS011;53955;52.442;13.284;2023-09-18T11:59:34;5.25;;;3.70;;
67049;SDS011;53955;52.442;13.284;2023-09-18T12:02:03;8.95;;;3.55;;
67049;SDS011;53955;52.442;13.284;2023-09-18T12:04:32;4.05;;;3.22;;
67049;SDS011;53955;52.442;13.284;2023-09-18T12:06:59;7.32;;;3.92;;
67049;SDS011;53955;52.442;13.284;2023-09-18T12:09:28;4.55;;;3.22;;
67049;SDS011;53955;52.442;13.284;2023-09-18T12:11:56;7.50;;;3.42;;
67049;SDS011;53955;52.442;13.284;2023-09-18T12:14:23;5.07;;;3.30;;
67049;SDS011;53955;52.442;13.284;2023-09-18T12:16:50;4.20;;;3.28;;
67049;SDS011;53955;52.442;13.284;2023-09-18T12:19:16;4.50;;;3.08;;
67049;SDS011;53955;52.442;13.284;2023-09-18T12:21:45;4.75;;;2.97;;
67049;SDS011;53955;52.442;13.284;2023-09-18T12:24:13;5.60;;;2.97;;
67049;SDS011;53955;52.442;13.284;2023-09-18T12:26:41;4.43;;;3.13;;
67049;SDS011;53955;52.442;13.284;2023-09-18T12:29:08;10.20;;;3.08;;
67049;SDS011;53955;52.442;13.284;2023-09-18T12:31:36;6.18;;;3.05;;
67049;SDS011;53955;52.442;13.284;2023-09-18T12:34:03;4.88;;;3.05;;
67049;SDS011;53955;52.442;13.284;2023-09-18T12:36:32;6.82;;;3.53;;
67049;SDS011;53955;52.442;13.284;2023-09-18T12:39:00;5.28;;;3.15;;
67049;SDS011;53955;52.442;13.284;2023-09-18T12:41:26;4.18;;;3.03;;
67049;SDS011;53955;52.442;13.284;2023-09-18T12:43:54;5.13;;;3.08;;
67049;SDS011;53955;52.442;13.284;2023-09-18T12:46:21;4.40;;;3.10;;
67049;SDS011;53955;52.442;13.284;2023-09-18T12:48:49;4.65;;;3.28;;
67049;SDS011;53955;52.442;13.284;2023-09-18T12:51:16;6.40;;;3.10;;
67049;SDS011;53955;52.442;13.284;2023-09-18T12:53:47;4.68;;;3.28;;
67049;SDS011;53955;52.442;13.284;2023-09-18T12:56:14;8.20;;;3.35;;
67049;SDS011;53955;52.442;13.284;2023-09-18T12:58:41;6.60;;;3.08;;
67049;SDS011;53955;52.442;13.284;2023-09-18T13:01:09;4.28;;;3.10;;
67049;SDS011;53955;52.442;13.284;2023-09-18T13:03:41;6.78;;;3.08;;
67049;SDS011;53955;52.442;13.284;2023-09-18T13:06:09;5.40;;;2.92;;
67049;SDS011;53955;52.442;13.284;2023-09-18T13:08:36;10.65;;;3.42;;
67049;SDS011;53955;52.442;13.284;2023-09-18T13:11:02;13.85;;;3.25;;
67049;SDS011;53955;52.442;13.284;2023-09-18T13:23:19;3.97;;;2.90;;
67049;SDS011;53955;52.442;13.284;2023-09-18T13:25:46;4.55;;;2.80;;
67049;SDS011;53955;52.442;13.284;2023-09-18T13:28:13;5.95;;;3.10;;
67049;SDS011;53955;52.442;13.284;2023-09-18T13:33:07;4.63;;;3.17;;
67049;SDS011;53955;52.442;13.284;2023-09-18T13:35:37;5.82;;;3.70;;
67049;SDS011;53955;52.442;13.284;2023-09-18T13:38:05;4.78;;;3.10;;
67049;SDS011;53955;52.442;13.284;2023-09-18T13:40:32;7.60;;;3.03;;
67049;SDS011;53955;52.442;13.284;2023-09-18T13:43:01;10.80;;;3.40;;
67049;SDS011;53955;52.442;13.284;2023-09-18T13:45:28;6.05;;;3.05;;
67049;SDS011;53955;52.442;13.284;2023-09-18T13:47:55;6.63;;;3.25;;
67049;SDS011;53955;52.442;13.284;2023-09-18T13:57:42;5.03;;;2.75;;
67049;SDS011;53955;52.442;13.284;2023-09-18T14:00:09;6.80;;;3.00;;
67049;SDS011;53955;52.442;13.284;2023-09-18T14:02:37;3.95;;;2.53;;
67049;SDS011;53955;52.442;13.284;2023-09-18T14:05:04;7.28;;;2.30;;
67049;SDS011;53955;52.442;13.284;2023-09-18T14:07:31;12.73;;;3.38;;
67049;SDS011;53955;52.442;13.284;2023-09-18T14:09:59;4.47;;;2.60;;
67049;SDS011;53955;52.442;13.284;2023-09-18T14:19:48;4.82;;;2.47;;
67049;SDS011;53955;52.442;13.284;2023-09-18T14:22:14;6.07;;;2.20;;
67049;SDS011;53955;52.442;13.284;2023-09-18T14:24:41;5.67;;;2.50;;
67049;SDS011;53955;52.442;13.284;2023-09-18T14:27:09;4.57;;;2.08;;
67049;SDS011;53955;52.442;13.284;2023-09-18T14:29:37;6.10;;;1.85;;
67049;SDS011;53955;52.442;13.284;2023-09-18T14:32:04;3.63;;;2.17;;
67049;SDS011;53955;52.442;13.284;2023-09-18T14:34:33;7.80;;;2.47;;
67049;SDS011;53955;52.442;13.284;2023-09-18T14:37:00;5.43;;;1.77;;
67049;SDS011;53955;52.442;13.284;2023-09-18T14:39:28;3.20;;;1.83;;
67049;SDS011;53955;52.442;13.284;2023-09-18T14:41:55;4.03;;;1.95;;
67049;SDS011;53955;52.442;13.284;2023-09-18T14:44:23;5.68;;;2.10;;
67049;SDS011;53955;52.442;13.284;2023-09-18T14:46:50;3.45;;;2.08;;
67049;SDS011;53955;52.442;13.284;2023-09-18T14:49:18;5.95;;;1.90;;
67049;SDS011;53955;52.442;13.284;2023-09-18T14:51:44;9.55;;;2.10;;
67049;SDS011;53955;52.442;13.284;2023-09-18T14:54:11;4.43;;;1.77;;
67049;SDS011;53955;52.442;13.284;2023-09-18T14:56:39;4.55;;;1.70;;
67049;SDS011;53955;52.442;13.284;2023-09-18T14:59:05;5.05;;;1.75;;
67049;SDS011;53955;52.442;13.284;2023-09-18T15:01:34;4.40;;;1.80;;
67049;SDS011;53955;52.442;13.284;2023-09-18T15:04:00;3.17;;;1.90;;
67049;SDS011;53955;52.442;13.284;2023-09-18T15:06:27;4.80;;;1.73;;
67049;SDS011;53955;52.442;13.284;2023-09-18T15:08:54;4.03;;;1.88;;
67049;SDS011;53955;52.442;13.284;2023-09-18T15:11:20;7.57;;;1.98;;
67049;SDS011;53955;52.442;13.284;2023-09-18T15:13:48;3.75;;;1.85;;
67049;SDS011;53955;52.442;13.284;2023-09-18T15:16:15;4.72;;;2.10;;
67049;SDS011;53955;52.442;13.284;2023-09-18T15:18:43;6.05;;;1.80;;
67049;SDS011;53955;52.442;13.284;2023-09-18T15:21:10;5.80;;;2.00;;
67049;SDS011;53955;52.442;13.284;2023-09-18T15:23:36;6.65;;;2.13;;
67049;SDS011;53955;52.442;13.284;2023-09-18T15:26:04;5.10;;;2.00;;
67049;SDS011;53955;52.442;13.284;2023-09-18T15:28:32;7.40;;;1.90;;
67049;SDS011;53955;52.442;13.284;2023-09-18T15:30:59;4.18;;;2.13;;
67049;SDS011;53955;52.442;13.284;2023-09-18T15:33:26;4.18;;;1.98;;
67049;SDS011;53955;52.442;13.284;2023-09-18T15:35:54;5.68;;;1.85;;
67049;SDS011;53955;52.442;13.284;2023-09-18T15:38:21;5.88;;;2.35;;
67049;SDS011;53955;52.442;13.284;2023-09-18T15:40:48;4.00;;;1.77;;
67049;SDS011;53955;52.442;13.284;2023-09-18T15:43:15;4.55;;;2.20;;
67049;SDS011;53955;52.442;13.284;2023-09-18T15:45:42;3.17;;;1.85;;
67049;SDS011;53955;52.442;13.284;2023-09-18T15:48:09;5.32;;;2.40;;
67049;SDS011;53955;52.442;13.284;2023-09-18T15:50:35;5.15;;;2.38;;
67049;SDS011;53955;52.442;13.284;2023-09-18T15:53:03;4.57;;;1.90;;
67049;SDS011;53955;52.442;13.284;2023-09-18T15:55:30;5.00;;;2.30;;
67049;SDS011;53955;52.442;13.284;2023-09-18T15:57:56;4.85;;;2.28;;
67049;SDS011;53955;52.442;13.284;2023-09-18T16:00:23;6.00;;;2.15;;
67049;SDS011;53955;52.442;13.284;2023-09-18T16:02:49;4.43;;;2.28;;
67049;SDS011;53955;52.442;13.284;2023-09-18T16:05:16;4.95;;;2.30;;
67049;SDS011;53955;52.442;13.284;2023-09-18T16:07:50;9.00;;;2.00;;
67049;SDS011;53955;52.442;13.284;2023-09-18T16:10:23;9.50;;;2.38;;
67049;SDS011;53955;52.442;13.284;2023-09-18T16:12:49;2.97;;;2.00;;
67049;SDS011;53955;52.442;13.284;2023-09-18T16:15:16;3.83;;;2.03;;
67049;SDS011;53955;52.442;13.284;2023-09-18T16:17:43;5.68;;;2.15;;
67049;SDS011;53955;52.442;13.284;2023-09-18T16:20:10;6.53;;;2.38;;
67049;SDS011;53955;52.442;13.284;2023-09-18T16:22:37;4.28;;;2.15;;
67049;SDS011;53955;52.442;13.284;2023-09-18T16:25:05;5.55;;;2.45;;
67049;SDS011;53955;52.442;13.284;2023-09-18T16:27:33;4.20;;;2.30;;
67049;SDS011;53955;52.442;13.284;2023-09-18T16:29:59;5.65;;;2.63;;
67049;SDS011;53955;52.442;13.284;2023-09-18T16:32:28;7.30;;;2.40;;
67049;SDS011;53955;52.442;13.284;2023-09-18T16:34:55;6.20;;;2.25;;
67049;SDS011;53955;52.442;13.284;2023-09-18T16:37:22;6.15;;;2.55;;
67049;SDS011;53955;52.442;13.284;2023-09-18T16:39:48;4.75;;;2.28;;
67049;SDS011;53955;52.442;13.284;2023-09-18T16:42:15;8.70;;;2.80;;
67049;SDS011;53955;52.442;13.284;2023-09-18T16:44:43;4.70;;;2.40;;
67049;SDS011;53955;52.442;13.284;2023-09-18T16:47:10;6.22;;;2.42;;
67049;SDS011;53955;52.442;13.284;2023-09-18T16:49:36;6.03;;;2.85;;
67049;SDS011;53955;52.442;13.284;2023-09-18T16:52:03;4.72;;;2.60;;
67049;SDS011;53955;52.442;13.284;2023-09-18T16:54:30;8.55;;;2.55;;
67049;SDS011;53955;52.442;13.284;2023-09-18T16:56:57;4.82;;;2.58;;
67049;SDS011;53955;52.442;13.284;2023-09-18T16:59:23;4.20;;;2.17;;
67049;SDS011;53955;52.442;13.284;2023-09-18T17:01:54;8.90;;;2.65;;
67049;SDS011;53955;52.442;13.284;2023-09-18T17:04:20;4.82;;;2.95;;
67049;SDS011;53955;52.442;13.284;2023-09-18T17:06:47;6.63;;;2.78;;
67049;SDS011;53955;52.442;13.284;2023-09-18T17:09:13;4.55;;;2.53;;
67049;SDS011;53955;52.442;13.284;2023-09-18T17:11:40;4.70;;;2.73;;